Time;durP1;ratioP1;P1;durP2;ratioP2;P2;SDS_P1;SDS_P2;PMS_P1;PMS_P2;Temp;Humidity;BMP_temperature;BMP_pressure;BME280_temperature;BME280_humidity;BME280_pressure;Samples;Min_cycle;Max_cycle;Signal;HPM_P1;HPM_P2
2021/03/22 00:01:33;;;;;;;22.67;4.70;;;5.00;89.40;;;;;;5055566;28;20048;-77
2021/03/22 00:03:58;;;;;;;26.75;4.68;;;5.00;89.40;;;;;;5074135;28;20055;-77
2021/03/22 00:06:24;;;;;;;24.80;3.83;;;5.00;89.50;;;;;;5073973;28;20046;-78
2021/03/22 00:08:54;;;;;;;26.08;4.90;;;4.90;89.00;;;;;;5089234;28;20473;-78
2021/03/22 00:11:19;;;;;;;13.88;3.88;;;4.90;88.70;;;;;;5055761;28;20425;-77
2021/03/22 00:13:45;;;;;;;31.23;4.70;;;4.90;88.60;;;;;;5089202;28;20512;-77
2021/03/22 00:16:11;;;;;;;21.80;5.03;;;4.80;88.30;;;;;;5089465;28;20017;-78
2021/03/22 00:18:38;;;;;;;24.02;4.78;;;4.80;88.50;;;;;;5073691;28;20433;-76
2021/03/22 00:21:05;;;;;;;22.63;5.75;;;4.70;88.70;;;;;;5055798;28;20017;-78
2021/03/22 00:23:31;;;;;;;30.27;5.15;;;4.70;89.10;;;;;;5073812;28;20070;-77
2021/03/22 00:25:57;;;;;;;32.33;5.88;;;4.60;90.10;;;;;;5088927;28;20399;-77
2021/03/22 00:28:24;;;;;;;22.67;5.03;;;4.70;90.40;;;;;;5055967;28;20471;-77
2021/03/22 00:30:51;;;;;;;26.20;4.60;;;4.70;90.40;;;;;;5055559;28;20168;-78
2021/03/22 00:33:18;;;;;;;28.13;5.18;;;4.70;90.40;;;;;;5088974;28;20036;-78
2021/03/22 00:35:44;;;;;;;29.10;5.90;;;4.70;90.20;;;;;;5055325;28;20020;-78
2021/03/22 00:38:11;;;;;;;28.00;5.00;;;4.60;90.00;;;;;;5088875;28;20449;-77
2021/03/22 00:40:40;;;;;;;18.45;3.80;;;4.60;90.40;;;;;;5072977;28;20535;-78
2021/03/22 00:43:06;;;;;;;28.80;5.38;;;4.60;90.20;;;;;;5072902;28;20435;-77
2021/03/22 00:45:31;;;;;;;24.75;5.13;;;4.50;90.10;;;;;;5073165;28;20449;-77
2021/03/22 00:47:57;;;;;;;27.50;5.90;;;4.50;90.10;;;;;;5072901;28;20020;-78
2021/03/22 00:50:32;;;;;;;28.67;5.45;;;4.40;90.20;;;;;;5072734;28;20058;-78
2021/03/22 00:52:58;;;;;;;25.65;5.65;;;4.40;90.70;;;;;;5054589;28;20024;-78
2021/03/22 00:55:25;;;;;;;35.50;6.60;;;4.40;90.90;;;;;;5072819;28;20028;-78
2021/03/22 00:57:51;;;;;;;24.40;5.50;;;4.40;91.10;;;;;;5072409;28;20082;-78
2021/03/22 01:00:31;;;;;;;25.27;5.57;;;4.40;91.30;;;;;;5072952;28;20016;-78
2021/03/22 01:02:57;;;;;;;26.70;5.28;;;4.40;91.30;;;;;;5072590;28;20063;-77
2021/03/22 01:05:24;;;;;;;32.80;4.88;;;4.40;91.20;;;;;;5072515;28;20013;-78
2021/03/22 01:07:49;;;;;;;17.88;4.93;;;4.40;91.20;;;;;;5054186;28;20489;-78
2021/03/22 01:10:39;;;;;;;29.33;6.32;;;4.40;90.80;;;;;;5088305;28;20020;-77
2021/03/22 01:13:10;;;;;;;26.20;5.63;;;4.30;90.60;;;;;;5072425;28;20364;-78
2021/03/22 01:15:35;;;;;;;;;;;4.20;90.40;;;;;;5055161;28;20020;-78
2021/03/22 01:18:01;;;;;;;18.35;5.32;;;4.20;90.50;;;;;;5054387;28;20234;-78
2021/03/22 01:20:35;;;;;;;24.85;5.82;;;4.10;90.60;;;;;;5087895;28;20016;-78
2021/03/22 01:23:01;;;;;;;29.90;5.47;;;4.10;91.30;;;;;;5071968;28;20408;-78
2021/03/22 01:25:27;;;;;;;24.67;4.60;;;4.10;91.10;;;;;;5072614;28;20065;-78
2021/03/22 01:27:52;;;;;;;31.00;5.00;;;4.10;91.30;;;;;;5072345;28;20061;-78
2021/03/22 01:30:26;;;;;;;21.23;5.43;;;4.10;91.10;;;;;;5072495;28;20448;-78
2021/03/22 01:32:51;;;;;;;20.17;5.65;;;4.00;91.30;;;;;;5072437;28;20368;-78
2021/03/22 01:35:17;;;;;;;28.15;5.88;;;4.00;91.60;;;;;;5072229;28;20464;-78
2021/03/22 01:37:43;;;;;;;23.58;5.85;;;4.00;91.70;;;;;;5088446;28;20464;-77
2021/03/22 01:40:30;;;;;;;27.15;5.38;;;4.00;91.40;;;;;;5054365;28;20036;-77
2021/03/22 01:43:25;;;;;;;23.67;4.70;;;4.00;91.30;;;;;;5053898;28;20027;-78
2021/03/22 01:45:51;;;;;;;18.63;4.68;;;4.00;91.30;;;;;;5072030;28;20019;-77
2021/03/22 01:48:17;;;;;;;24.13;5.80;;;3.90;91.40;;;;;;5087685;28;20016;-78
2021/03/22 01:50:43;;;;;;;33.78;6.60;;;3.90;91.50;;;;;;5071963;28;20480;-78
2021/03/22 01:53:09;;;;;;;34.75;7.43;;;3.90;91.80;;;;;;5073067;28;20465;-77
2021/03/22 01:55:35;;;;;;;36.97;7.00;;;3.90;92.10;;;;;;5087856;28;20028;-77
2021/03/22 01:58:00;;;;;;;28.92;6.18;;;3.90;92.20;;;;;;5072314;28;20025;-77
2021/03/22 02:00:28;;;;;;;26.20;6.57;;;3.90;92.10;;;;;;5072527;28;20023;-77
2021/03/22 02:03:01;;;;;;;20.63;5.35;;;3.90;91.90;;;;;;5073390;28;20024;-78
2021/03/22 02:05:29;;;;;;;29.83;7.25;;;3.90;91.80;;;;;;5064448;28;20085;-75
2021/03/22 02:08:06;;;;;;;31.40;6.18;;;3.90;92.10;;;;;;5079552;28;20452;-77
2021/03/22 02:10:33;;;;;;;31.40;6.97;;;3.90;92.00;;;;;;5058549;28;20020;-77
2021/03/22 02:12:59;;;;;;;33.90;6.72;;;3.90;92.00;;;;;;5058076;28;20024;-77
2021/03/22 02:15:25;;;;;;;25.83;5.88;;;3.90;92.20;;;;;;5077109;28;20067;-76
2021/03/22 02:18:15;;;;;;;31.40;6.90;;;3.90;92.40;;;;;;5077139;28;20384;-77
2021/03/22 02:21:01;;;;;;;38.28;7.35;;;3.90;92.60;;;;;;5081455;28;20016;-77
2021/03/22 02:23:48;;;;;;;29.88;7.32;;;3.90;92.40;;;;;;5058529;28;20375;-77
2021/03/22 02:26:46;;;;;;;31.60;9.57;;;3.90;92.50;;;;;;5075913;28;20025;-77
2021/03/22 02:29:29;;;;;;;24.70;5.95;;;3.90;92.80;;;;;;5057944;28;20017;-80
2021/03/22 02:32:03;;;;;;;32.60;6.95;;;3.90;92.50;;;;;;5057631;28;20377;-80
2021/03/22 02:34:47;;;;;;;39.63;8.18;;;4.00;92.70;;;;;;5075858;28;20021;-79
2021/03/22 02:37:32;;;;;;;26.30;6.50;;;4.00;92.80;;;;;;5057833;28;20017;-79
2021/03/22 02:39:58;;;;;;;24.08;7.88;;;4.10;92.80;;;;;;5056834;28;20511;-79
2021/03/22 02:42:27;;;;;;;32.05;6.93;;;4.20;92.80;;;;;;5057662;28;20024;-78
2021/03/22 02:44:53;;;;;;;27.73;6.47;;;4.20;93.00;;;;;;5075022;28;20028;-78
2021/03/22 02:47:31;;;;;;;30.10;7.53;;;4.20;92.70;;;;;;5091110;28;20278;-78
2021/03/22 02:50:00;;;;;;;25.77;8.00;;;4.30;92.60;;;;;;5057563;28;20024;-78
2021/03/22 02:53:11;;;;;;;25.58;7.45;;;4.40;92.60;;;;;;5057333;28;20040;-78
2021/03/22 02:56:13;;;;;;;35.88;8.40;;;4.40;92.50;;;;;;5075275;28;20114;-78
2021/03/22 02:58:59;;;;;;;26.60;8.43;;;4.50;92.50;;;;;;5057401;28;20107;-78
2021/03/22 03:01:48;;;;;;;30.10;7.40;;;4.60;92.40;;;;;;5056678;28;20028;-78
2021/03/22 03:04:16;;;;;;;30.27;8.50;;;4.60;92.40;;;;;;5057036;28;20028;-78
2021/03/22 03:06:47;;;;;;;27.35;8.32;;;4.60;92.50;;;;;;5078662;28;20035;-76
2021/03/22 03:09:14;;;;;;;28.30;7.85;;;4.60;92.50;;;;;;5074554;28;20049;-77
2021/03/22 03:11:39;;;;;;;36.90;10.02;;;4.70;92.40;;;;;;5074710;28;20048;-77
2021/03/22 03:14:05;;;;;;;38.58;9.18;;;4.70;92.40;;;;;;5056366;28;20060;-78
2021/03/22 03:16:32;;;;;;;38.85;9.75;;;4.70;92.50;;;;;;5056933;28;20029;-77
2021/03/22 03:18:58;;;;;;;32.17;8.52;;;4.80;92.50;;;;;;5090154;28;20338;-77
2021/03/22 03:21:24;;;;;;;35.13;8.00;;;4.80;92.40;;;;;;5057463;28;20020;-78
2021/03/22 03:23:49;;;;;;;32.28;9.48;;;4.80;92.30;;;;;;5094517;28;20030;-78
2021/03/22 03:26:15;;;;;;;31.95;9.02;;;4.90;92.30;;;;;;5076745;28;20062;-78
2021/03/22 03:28:40;;;;;;;24.15;8.35;;;4.90;92.30;;;;;;5094934;28;20523;-77
2021/03/22 03:31:06;;;;;;;41.78;9.55;;;4.90;92.20;;;;;;5076654;28;20107;-77
2021/03/22 03:33:32;;;;;;;39.55;10.43;;;5.00;92.10;;;;;;5095000;28;20012;-77
2021/03/22 03:35:57;;;;;;;37.50;9.70;;;5.00;92.10;;;;;;5094345;28;20126;-78
2021/03/22 03:38:23;;;;;;;31.48;8.35;;;5.10;92.10;;;;;;5094835;28;20348;-78
2021/03/22 03:40:49;;;;;;;34.03;8.93;;;5.10;92.00;;;;;;5076390;28;20337;-77
2021/03/22 03:43:15;;;;;;;36.60;10.88;;;5.10;91.90;;;;;;5076420;28;20024;-78
2021/03/22 03:45:44;;;;;;;31.17;9.02;;;5.10;92.00;;;;;;5094919;28;20020;-78
2021/03/22 03:48:17;;;;;;;30.27;9.88;;;5.10;91.90;;;;;;5075935;28;20022;-78
2021/03/22 03:50:42;;;;;;;35.83;8.90;;;5.20;92.00;;;;;;5076358;28;20016;-77
2021/03/22 03:53:10;;;;;;;33.70;9.07;;;5.20;92.00;;;;;;5076071;28;20027;-77
2021/03/22 03:55:36;;;;;;;29.65;9.75;;;5.20;91.90;;;;;;5076263;28;20046;-77
2021/03/22 03:58:02;;;;;;;28.52;9.43;;;5.30;92.00;;;;;;5094487;28;20460;-77
2021/03/22 04:00:38;;;;;;;35.47;10.75;;;5.30;92.00;;;;;;5076182;28;20020;-77
2021/03/22 04:03:22;;;;;;;36.28;11.88;;;5.30;91.90;;;;;;5075959;28;20081;-77
2021/03/22 04:05:57;;;;;;;40.17;10.45;;;5.30;91.90;;;;;;5094087;28;20020;-77
2021/03/22 04:08:24;;;;;;;39.63;11.18;;;5.30;91.90;;;;;;5075784;28;20438;-76
2021/03/22 04:10:51;;;;;;;31.13;9.20;;;5.30;91.90;;;;;;5093949;28;20094;-76
2021/03/22 04:13:17;;;;;;;36.70;10.32;;;5.30;91.90;;;;;;5075960;28;20513;-76
2021/03/22 04:15:42;;;;;;;36.42;10.45;;;5.30;91.90;;;;;;5094580;28;20028;-75
2021/03/22 04:18:08;;;;;;;29.90;9.95;;;5.40;91.90;;;;;;5076949;28;20020;-76
2021/03/22 04:20:34;;;;;;;32.67;9.45;;;5.40;91.90;;;;;;5080127;28;20461;-76
2021/03/22 04:22:59;;;;;;;35.40;9.43;;;5.40;91.80;;;;;;5061871;28;20082;-76
2021/03/22 04:25:25;;;;;;;39.75;10.32;;;5.40;91.80;;;;;;5055243;28;20013;-76
2021/03/22 04:27:51;;;;;;;39.25;10.88;;;5.40;91.80;;;;;;5073246;28;20447;-77
2021/03/22 04:30:17;;;;;;;34.67;10.50;;;5.40;91.80;;;;;;5056026;28;20013;-76
2021/03/22 04:32:43;;;;;;;42.17;11.10;;;5.40;91.80;;;;;;5077542;28;20021;-76
2021/03/22 04:35:09;;;;;;;42.22;10.77;;;5.50;91.90;;;;;;5055637;28;20055;-76
2021/03/22 04:37:34;;;;;;;38.70;10.05;;;5.40;91.90;;;;;;5058347;28;20028;-78
2021/03/22 04:40:00;;;;;;;33.50;9.15;;;5.50;91.80;;;;;;5055309;28;20025;-78
2021/03/22 04:42:26;;;;;;;36.42;9.32;;;5.50;91.80;;;;;;5073298;28;20036;-78
2021/03/22 04:44:51;;;;;;;42.60;11.55;;;5.50;91.70;;;;;;5054852;28;20103;-78
2021/03/22 04:47:17;;;;;;;37.95;10.88;;;5.50;91.70;;;;;;5055316;28;20103;-78
2021/03/22 04:49:42;;;;;;;34.50;9.40;;;5.50;91.70;;;;;;5055179;28;20044;-78
2021/03/22 04:52:08;;;;;;;35.70;9.98;;;5.50;91.80;;;;;;5054934;28;20089;-78
2021/03/22 04:54:34;;;;;;;34.03;10.63;;;5.50;91.80;;;;;;5055112;28;20028;-78
2021/03/22 04:57:13;;;;;;;33.33;9.18;;;5.50;91.90;;;;;;5072834;28;20020;-78
2021/03/22 04:59:40;;;;;;;41.43;10.93;;;5.50;91.90;;;;;;5054969;28;20031;-78
2021/03/22 05:02:06;;;;;;;36.40;10.80;;;5.50;91.90;;;;;;5072875;28;20298;-77
2021/03/22 05:04:32;;;;;;;40.95;11.82;;;5.50;92.00;;;;;;5072875;28;20487;-78
2021/03/22 05:06:57;;;;;;;46.58;11.57;;;5.50;92.10;;;;;;5054706;28;20116;-77
2021/03/22 05:09:23;;;;;;;40.15;11.55;;;5.50;92.50;;;;;;5054283;28;20396;-76
2021/03/22 05:11:49;;;;;;;43.80;9.95;;;5.50;92.40;;;;;;5054734;28;20453;-77
2021/03/22 05:14:15;;;;;;;35.60;10.70;;;5.50;92.40;;;;;;5054277;28;20028;-76
2021/03/22 05:16:41;;;;;;;32.53;9.65;;;5.50;92.40;;;;;;5054940;28;20045;-76
2021/03/22 05:19:06;;;;;;;38.20;9.98;;;5.60;92.40;;;;;;5072401;28;20067;-76
2021/03/22 05:21:32;;;;;;;38.70;10.68;;;5.60;92.40;;;;;;5054560;28;20069;-76
2021/03/22 05:23:57;;;;;;;38.10;11.05;;;5.60;92.40;;;;;;5072565;28;20029;-76
2021/03/22 05:26:23;;;;;;;33.75;9.07;;;5.60;92.40;;;;;;5054492;28;20016;-75
2021/03/22 05:28:48;;;;;;;34.90;10.30;;;5.60;92.40;;;;;;5072210;28;20032;-76
2021/03/22 05:31:14;;;;;;;23.50;8.18;;;5.60;92.40;;;;;;5072582;28;20025;-76
2021/03/22 05:33:39;;;;;;;35.47;8.13;;;5.60;92.50;;;;;;5088273;28;20029;-76
2021/03/22 05:36:06;;;;;;;24.67;7.15;;;5.60;92.50;;;;;;5072589;28;20100;-76
2021/03/22 05:38:31;;;;;;;38.70;10.90;;;5.60;92.60;;;;;;5054773;28;20016;-77
2021/03/22 05:41:13;;;;;;;29.50;8.07;;;5.60;92.40;;;;;;5054010;28;20038;-77
2021/03/22 05:43:42;;;;;;;22.85;7.80;;;5.60;92.50;;;;;;5072603;28;20364;-76
2021/03/22 05:46:29;;;;;;;29.08;8.23;;;5.60;92.40;;;;;;5053975;28;20020;-76
2021/03/22 05:49:05;;;;;;;19.92;7.28;;;5.60;92.50;;;;;;5072062;28;20072;-76
2021/03/22 05:52:02;;;;;;;28.88;7.30;;;5.60;92.50;;;;;;5054001;28;20115;-75
2021/03/22 05:54:36;;;;;;;16.10;4.80;;;5.70;92.50;;;;;;5053972;28;20042;-76
2021/03/22 05:57:28;;;;;;;21.23;6.47;;;5.70;92.40;;;;;;5053658;28;20429;-76
2021/03/22 06:00:11;;;;;;;19.67;6.63;;;5.70;92.40;;;;;;5053751;28;20465;-75
2021/03/22 06:02:40;;;;;;;28.60;6.78;;;5.70;92.30;;;;;;5053951;28;20025;-76
2021/03/22 06:05:37;;;;;;;24.40;6.78;;;5.70;92.30;;;;;;5071769;28;20091;-77
2021/03/22 06:08:39;;;;;;;25.10;5.63;;;5.80;92.30;;;;;;5044545;28;20033;-77
2021/03/22 06:11:18;;;;;;;21.17;6.45;;;5.80;92.30;;;;;;5053658;28;20067;-77
2021/03/22 06:13:47;;;;;;;32.08;7.13;;;5.80;92.30;;;;;;5072094;28;20437;-77
2021/03/22 06:16:24;;;;;;;23.40;5.88;;;5.80;92.20;;;;;;5053734;28;20099;-76
2021/03/22 06:18:54;;;;;;;29.05;5.93;;;5.90;92.20;;;;;;5053932;28;20020;-77
2021/03/22 06:21:20;;;;;;;24.27;5.22;;;5.90;92.20;;;;;;5072015;28;20032;-78
2021/03/22 06:23:47;;;;;;;28.17;5.32;;;5.90;92.10;;;;;;5087341;28;20016;-78
2021/03/22 06:26:18;;;;;;;22.98;6.45;;;5.90;92.10;;;;;;5053612;28;20021;-77
2021/03/22 06:28:47;;;;;;;25.25;6.07;;;6.00;92.10;;;;;;5053698;28;20024;-76
2021/03/22 06:31:17;;;;;;;18.65;5.70;;;6.00;92.30;;;;;;5071303;28;20115;-77
2021/03/22 06:33:45;;;;;;;;;;;6.00;92.10;;;;;;5054171;28;20027;-75
2021/03/22 06:36:15;;;;;;;17.20;4.82;;;6.10;92.00;;;;;;5053602;28;20003;-76
2021/03/22 06:38:51;;;;;;;23.42;7.03;;;6.10;91.90;;;;;;5071806;28;20065;-77
2021/03/22 06:41:36;;;;;;;20.35;5.35;;;6.10;92.30;;;;;;5053958;28;20044;-78
2021/03/22 06:44:11;;;;;;;16.38;3.78;;;6.10;92.00;;;;;;5071693;28;20013;-78
2021/03/22 06:47:18;;;;;;;15.48;4.78;;;6.20;92.00;;;;;;5053720;28;20025;-76
2021/03/22 06:50:12;;;;;;;19.20;4.55;;;6.30;91.80;;;;;;5074063;28;20348;-79
2021/03/22 06:52:40;;;;;;;14.07;4.07;;;6.30;91.80;;;;;;5057887;28;20028;-79
2021/03/22 06:55:26;;;;;;;13.38;3.85;;;6.30;91.60;;;;;;5057458;28;20016;-81
2021/03/22 06:57:52;;;;;;;16.27;3.45;;;6.40;91.60;;;;;;5057867;28;20461;-79
2021/03/22 07:00:22;;;;;;;12.63;3.35;;;6.40;91.30;;;;;;5075395;28;20104;-80
2021/03/22 07:02:57;;;;;;;16.38;4.07;;;6.50;91.20;;;;;;5058266;28;20364;-79
2021/03/22 07:05:28;;;;;;;14.40;3.80;;;6.50;91.00;;;;;;5058635;28;20016;-79
2021/03/22 07:08:04;;;;;;;16.83;3.30;;;6.50;91.00;;;;;;5085336;28;20049;-80
2021/03/22 07:10:37;;;;;;;13.90;3.85;;;6.60;90.70;;;;;;5066168;28;20016;-79
2021/03/22 07:13:22;;;;;;;11.68;3.17;;;6.60;90.60;;;;;;5057495;28;20062;-80
2021/03/22 07:15:49;;;;;;;19.98;3.63;;;6.70;90.50;;;;;;5057377;28;20012;-77
2021/03/22 07:18:25;;;;;;;10.48;2.80;;;6.70;90.50;;;;;;5075821;28;20020;-78
2021/03/22 07:20:54;;;;;;;12.18;3.20;;;6.70;90.50;;;;;;5069770;28;20020;-80
2021/03/22 07:23:22;;;;;;;12.18;3.10;;;6.80;90.70;;;;;;5065558;28;20050;-78
2021/03/22 07:25:53;;;;;;;11.10;3.05;;;6.80;90.90;;;;;;5060964;28;20016;-80
2021/03/22 07:28:53;;;;;;;9.95;3.17;;;6.80;90.80;;;;;;5074058;28;20033;-79
2021/03/22 07:31:39;;;;;;;;;;;6.90;90.90;;;;;;5074716;28;20021;-80
2021/03/22 07:34:16;;;;;;;12.63;2.88;;;6.90;90.90;;;;;;5022953;28;20276;-80
2021/03/22 07:37:13;;;;;;;14.35;3.00;;;6.90;90.90;;;;;;5074937;28;20093;-79
2021/03/22 07:39:58;;;;;;;12.38;2.75;;;6.90;90.60;;;;;;5074674;28;20016;-79
2021/03/22 07:42:46;;;;;;;9.13;2.75;;;6.80;90.30;;;;;;5056587;28;20530;-79
2021/03/22 07:45:20;;;;;;;12.77;2.97;;;6.80;90.20;;;;;;5056367;28;20025;-79
2021/03/22 07:48:11;;;;;;;11.40;2.58;;;6.80;90.40;;;;;;5056200;28;20044;-79
2021/03/22 07:50:51;;;;;;;9.77;2.85;;;6.80;90.40;;;;;;5074609;28;20042;-79
2021/03/22 07:53:38;;;;;;;6.57;2.10;;;6.90;90.30;;;;;;5074136;28;20108;-77
2021/03/22 07:56:38;;;;;;;10.15;1.92;;;6.90;90.20;;;;;;5056116;28;20453;-78
2021/03/22 07:59:22;;;;;;;7.78;2.13;;;7.00;90.20;;;;;;5040916;28;20119;-79
2021/03/22 08:01:57;;;;;;;6.25;1.88;;;7.10;90.20;;;;;;5054749;28;20023;-78
2021/03/22 08:04:32;;;;;;;10.13;2.10;;;7.20;89.60;;;;;;5055984;28;20012;-78
2021/03/22 08:07:46;;;;;;;7.78;2.47;;;7.40;90.00;;;;;;5086593;28;20031;-78
2021/03/22 08:10:30;;;;;;;7.18;1.60;;;7.70;90.00;;;;;;5066335;28;20040;-78
2021/03/22 08:13:08;;;;;;;4.55;1.58;;;7.80;88.00;;;;;;5076387;28;20025;-79
2021/03/22 08:15:48;;;;;;;6.72;1.75;;;7.80;87.20;;;;;;5076054;28;20024;-79
2021/03/22 08:18:36;;;;;;;8.23;1.95;;;7.70;87.50;;;;;;5076103;28;20083;-78
2021/03/22 08:21:28;;;;;;;6.03;1.92;;;7.60;87.10;;;;;;5075253;28;20130;-79
2021/03/22 08:24:03;;;;;;;8.45;2.22;;;7.60;87.20;;;;;;5014795;28;20043;-79
2021/03/22 08:26:59;;;;;;;10.23;2.00;;;7.50;87.90;;;;;;5075456;28;20017;-79
2021/03/22 08:29:28;;;;;;;4.40;1.55;;;7.50;88.30;;;;;;5094215;28;20023;-78
2021/03/22 08:32:16;;;;;;;8.30;2.20;;;7.60;88.60;;;;;;5076113;28;20027;-78
2021/03/22 08:34:49;;;;;;;7.13;1.80;;;7.70;87.70;;;;;;5076123;28;20016;-77
2021/03/22 08:37:30;;;;;;;8.02;2.50;;;7.70;87.40;;;;;;5093757;28;20020;-77
2021/03/22 08:40:00;;;;;;;8.05;1.80;;;7.90;88.10;;;;;;5094385;28;20027;-78
2021/03/22 08:42:32;;;;;;;6.95;1.92;;;7.90;87.20;;;;;;5093840;28;20059;-77
2021/03/22 08:44:57;;;;;;;4.70;1.60;;;8.20;87.40;;;;;;5075556;28;20020;-78
2021/03/22 08:47:36;;;;;;;5.68;1.70;;;8.50;86.20;;;;;;5075170;28;20093;-78
2021/03/22 08:50:17;;;;;;;5.88;1.70;;;9.00;86.20;;;;;;5075600;28;20016;-78
2021/03/22 08:52:57;;;;;;;4.90;1.58;;;9.50;84.70;;;;;;5093709;28;20500;-77
2021/03/22 08:55:25;;;;;;;5.07;1.60;;;10.00;81.60;;;;;;5093533;28;20119;-77
2021/03/22 08:58:02;;;;;;;7.10;2.08;;;10.40;79.80;;;;;;5075022;28;20043;-77
2021/03/22 09:00:43;;;;;;;4.85;1.73;;;10.60;75.60;;;;;;5075347;28;20437;-78
2021/03/22 09:03:20;;;;;;;12.70;2.95;;;10.60;74.90;;;;;;5075288;28;20369;-77
2021/03/22 09:06:05;;;;;;;8.85;2.40;;;10.40;75.40;;;;;;5075389;28;20024;-76
2021/03/22 09:08:33;;;;;;;8.68;2.42;;;10.20;74.40;;;;;;5074844;28;20490;-78
2021/03/22 09:11:26;;;;;;;10.02;3.08;;;9.90;75.70;;;;;;5075751;28;20026;-78
2021/03/22 09:13:56;;;;;;;9.45;3.05;;;9.80;78.30;;;;;;5075031;28;20100;-78
2021/03/22 09:16:22;;;;;;;12.52;2.67;;;9.90;77.80;;;;;;5074926;28;20020;-78
2021/03/22 09:19:09;;;;;;;11.00;2.92;;;9.80;77.60;;;;;;5093250;28;20027;-78
2021/03/22 09:21:39;;;;;;;7.63;2.42;;;9.80;77.40;;;;;;5072143;28;20049;-78
2021/03/22 09:24:24;;;;;;;;;;;9.60;78.10;;;;;;5055026;28;20050;-78
2021/03/22 09:26:59;;;;;;;10.43;2.88;;;9.50;77.30;;;;;;5073049;28;20287;-79
2021/03/22 09:29:30;;;;;;;9.27;2.10;;;9.30;78.90;;;;;;5072482;28;20031;-79
2021/03/22 09:31:56;;;;;;;6.15;2.53;;;9.00;79.60;;;;;;5054746;28;20029;-79
2021/03/22 09:34:21;;;;;;;6.95;2.17;;;8.80;80.70;;;;;;5054551;28;20031;-78
2021/03/22 09:36:48;;;;;;;7.28;1.73;;;8.70;80.40;;;;;;5054573;28;20017;-78
2021/03/22 09:39:14;;;;;;;9.20;2.85;;;8.60;81.00;;;;;;5072427;28;20029;-77
2021/03/22 09:41:51;;;;;;;6.63;2.35;;;8.50;82.50;;;;;;5054553;28;20020;-78
2021/03/22 09:44:18;;;;;;;13.85;3.25;;;8.50;83.00;;;;;;5072412;28;20329;-78
2021/03/22 09:46:47;;;;;;;12.35;2.70;;;8.60;82.10;;;;;;5054623;28;20021;-78
2021/03/22 09:49:20;;;;;;;10.13;3.05;;;8.60;82.90;;;;;;5054268;28;20013;-79
2021/03/22 09:51:48;;;;;;;24.33;14.80;;;8.60;82.80;;;;;;5054728;28;20134;-79
2021/03/22 09:54:35;;;;;;;11.73;3.05;;;8.70;83.20;;;;;;5059642;28;20403;-78
2021/03/22 09:57:18;;;;;;;8.88;2.33;;;8.80;83.30;;;;;;5055715;28;20365;-79
2021/03/22 10:00:21;;;;;;;9.32;2.45;;;9.00;81.30;;;;;;5072794;28;20024;-78
2021/03/22 10:02:56;;;;;;;8.90;2.10;;;9.10;80.40;;;;;;5054411;28;20081;-78
2021/03/22 10:05:22;;;;;;;8.30;2.70;;;9.40;80.40;;;;;;5055081;28;20024;-78
2021/03/22 10:08:24;;;;;;;8.50;1.92;;;9.80;79.80;;;;;;5059791;28;20479;-77
2021/03/22 10:10:51;;;;;;;5.15;1.30;;;10.30;76.30;;;;;;5055392;28;20016;-76
2021/03/22 10:13:32;;;;;;;5.28;1.55;;;10.60;73.80;;;;;;5054204;28;20029;-77
2021/03/22 10:16:11;;;;;;;6.50;1.70;;;10.70;74.30;;;;;;5054072;28;20025;-78
2021/03/22 10:18:50;;;;;;;6.43;2.45;;;10.60;72.60;;;;;;5053896;28;20017;-77
2021/03/22 10:21:28;;;;;;;2.53;1.60;;;10.40;72.20;;;;;;5053802;28;20117;-76
2021/03/22 10:24:12;;;;;;;6.15;1.83;;;10.30;72.30;;;;;;5072293;28;20043;-78
2021/03/22 10:26:49;;;;;;;7.55;1.30;;;10.20;75.80;;;;;;5075595;28;20062;-77
2021/03/22 10:29:26;;;;;;;11.10;1.50;;;10.20;78.20;;;;;;5057672;28;20103;-77
2021/03/22 10:32:09;;;;;;;5.63;1.50;;;10.30;75.30;;;;;;5057829;28;20511;-77
2021/03/22 10:34:54;;;;;;;4.40;1.95;;;10.30;77.70;;;;;;5057772;28;20028;-77
2021/03/22 10:37:29;;;;;;;7.50;1.30;;;10.20;80.00;;;;;;5075731;28;20019;-79
2021/03/22 10:40:01;;;;;;;4.80;1.67;;;9.90;78.60;;;;;;5057814;28;20024;-77
2021/03/22 10:42:27;;;;;;;3.00;0.85;;;9.70;73.10;;;;;;5075334;28;20052;-77
2021/03/22 10:44:54;;;;;;;4.10;0.82;;;9.70;72.60;;;;;;5057865;28;20048;-78
2021/03/22 10:47:21;;;;;;;6.10;1.02;;;9.70;78.30;;;;;;5057369;28;20025;-79
2021/03/22 10:49:50;;;;;;;5.40;1.23;;;9.60;75.50;;;;;;5075368;28;20521;-78
2021/03/22 10:52:34;;;;;;;6.72;1.30;;;9.60;73.20;;;;;;5057197;28;20059;-79
2021/03/22 10:54:59;;;;;;;6.38;1.45;;;9.60;72.70;;;;;;5075550;28;20507;-78
2021/03/22 10:57:31;;;;;;;2.60;1.45;;;9.70;72.40;;;;;;5057173;28;20112;-78
2021/03/22 11:00:02;;;;;;;3.08;0.98;;;9.90;80.30;;;;;;5057381;28;20043;-78
2021/03/22 11:02:39;;;;;;;3.78;1.00;;;10.10;79.10;;;;;;5074803;28;20439;-78
2021/03/22 11:05:11;;;;;;;5.00;1.20;;;10.20;73.00;;;;;;5057397;28;20016;-77
2021/03/22 11:07:37;;;;;;;4.40;1.33;;;10.30;75.50;;;;;;5075264;28;20487;-77
2021/03/22 11:10:12;;;;;;;4.07;1.42;;;10.40;70.90;;;;;;5075253;28;20033;-76
2021/03/22 11:12:41;;;;;;;3.38;1.08;;;10.40;68.40;;;;;;5076830;28;20445;-76
2021/03/22 11:15:15;;;;;;;2.40;0.75;;;10.40;68.50;;;;;;5077603;28;20021;-78
2021/03/22 11:17:48;;;;;;;3.90;0.90;;;10.40;69.10;;;;;;5077893;28;20012;-77
2021/03/22 11:20:16;;;;;;;4.10;1.08;;;10.30;70.50;;;;;;5095829;28;20024;-76
2021/03/22 11:22:44;;;;;;;6.50;1.10;;;10.30;69.20;;;;;;5065289;28;20104;-78
2021/03/22 11:25:29;;;;;;;6.13;1.77;;;10.20;69.50;;;;;;5056346;28;20023;-80
2021/03/22 11:28:17;;;;;;;5.10;1.92;;;10.10;69.40;;;;;;5056552;28;20380;-79
2021/03/22 11:30:59;;;;;;;3.72;1.08;;;10.00;70.30;;;;;;5057038;28;20414;-79
2021/03/22 11:33:31;;;;;;;4.10;1.30;;;9.90;73.70;;;;;;5056941;28;20142;-78
2021/03/22 11:36:18;;;;;;;2.22;0.95;;;9.80;73.30;;;;;;5074383;28;20414;-78
2021/03/22 11:39:27;;;;;;;3.33;1.10;;;9.80;71.20;;;;;;5056298;28;20069;-75
2021/03/22 11:41:52;;;;;;;7.45;1.95;;;9.70;74.40;;;;;;5023426;28;20030;-75
2021/03/22 11:44:30;;;;;;;4.40;0.98;;;9.60;73.60;;;;;;5056063;28;20119;-76
2021/03/22 11:47:28;;;;;;;4.68;1.10;;;9.50;72.60;;;;;;5074350;28;20496;-77
2021/03/22 11:49:56;;;;;;;3.65;0.90;;;9.50;73.20;;;;;;5056261;28;20094;-75
2021/03/22 11:52:26;;;;;;;1.55;0.70;;;9.50;73.00;;;;;;5074308;28;20060;-79
2021/03/22 11:55:08;;;;;;;3.15;1.00;;;9.40;73.80;;;;;;5075278;28;20024;-78
2021/03/22 11:57:36;;;;;;;4.57;0.70;;;9.50;73.20;;;;;;5074411;28;20512;-79
2021/03/22 12:00:21;;;;;;;4.03;0.90;;;9.50;73.60;;;;;;5056755;28;20453;-79
2021/03/22 12:03:30;;;;;;;4.85;0.93;;;9.50;73.80;;;;;;5056123;28;20030;-79
2021/03/22 12:06:06;;;;;;;8.18;1.40;;;9.50;72.80;;;;;;5076807;28;20020;-78
2021/03/22 12:08:35;;;;;;;3.20;0.88;;;9.40;74.60;;;;;;5059262;28;20435;-79
2021/03/22 12:11:03;;;;;;;5.68;1.30;;;9.40;77.50;;;;;;5061447;28;20040;-78
2021/03/22 12:13:29;;;;;;;5.75;1.13;;;9.50;73.70;;;;;;5077033;28;20028;-78
2021/03/22 12:15:54;;;;;;;6.15;1.30;;;9.60;78.60;;;;;;5074395;28;20020;-79
2021/03/22 12:18:26;;;;;;;5.55;1.27;;;9.60;73.20;;;;;;5088790;28;20016;-79
2021/03/22 12:20:52;;;;;;;3.10;0.80;;;9.70;72.00;;;;;;5055931;28;20032;-79
2021/03/22 12:23:17;;;;;;;3.20;0.80;;;9.80;69.70;;;;;;5055388;28;20028;-78
2021/03/22 12:25:43;;;;;;;3.10;0.95;;;9.90;69.80;;;;;;5090455;28;20044;-80
2021/03/22 12:28:08;;;;;;;7.93;1.27;;;10.10;69.70;;;;;;5082721;28;20118;-80
2021/03/22 12:30:35;;;;;;;3.30;0.82;;;10.10;68.60;;;;;;5073474;28;20047;-80
2021/03/22 12:33:02;;;;;;;4.93;0.82;;;10.10;67.20;;;;;;5076552;28;20024;-79
2021/03/22 12:35:32;;;;;;;2.15;0.90;;;10.20;67.30;;;;;;5074208;28;20019;-79
2021/03/22 12:37:58;;;;;;;4.30;0.80;;;10.20;70.50;;;;;;5076088;28;20020;-79
2021/03/22 12:40:23;;;;;;;5.03;1.75;;;10.20;66.90;;;;;;5082801;28;20620;-78
2021/03/22 12:42:49;;;;;;;2.63;0.70;;;10.30;66.20;;;;;;5099257;28;20020;-79
2021/03/22 12:45:23;;;;;;;3.50;0.70;;;10.40;66.50;;;;;;5098399;28;20448;-80
2021/03/22 12:47:51;;;;;;;2.65;0.75;;;10.60;66.20;;;;;;5074938;28;20035;-79
2021/03/22 12:50:28;;;;;;;7.32;1.10;;;10.70;63.80;;;;;;5093828;28;20020;-79
2021/03/22 12:52:54;;;;;;;2.58;0.70;;;10.80;61.50;;;;;;5078131;28;20016;-80
2021/03/22 12:55:22;;;;;;;2.65;0.60;;;10.90;62.50;;;;;;5095372;28;20016;-80
2021/03/22 12:57:48;;;;;;;5.40;0.88;;;10.90;65.50;;;;;;5090098;28;20057;-81
2021/03/22 13:00:17;;;;;;;6.68;0.90;;;11.00;64.20;;;;;;5094298;28;20103;-81
2021/03/22 13:02:45;;;;;;;3.10;0.80;;;11.10;60.70;;;;;;5076450;28;20463;-81
2021/03/22 13:05:24;;;;;;;3.33;0.80;;;11.20;59.60;;;;;;5093373;28;20071;-79
2021/03/22 13:08:15;;;;;;;2.47;0.80;;;11.20;58.70;;;;;;5076749;28;20356;-79
2021/03/22 13:11:04;;;;;;;;;;;;;;;;;;;;;
2021/03/22 13:13:49;;;;;;;;;;;;;;;;;;;;;
2021/03/22 13:16:21;;;;;;;4.35;2.30;;;11.10;59.70;;;;;;5094662;28;20471;-76
2021/03/22 13:18:54;;;;;;;2.65;1.15;;;11.10;59.70;;;;;;5076646;28;20345;-78
2021/03/22 13:21:20;;;;;;;7.90;2.20;;;11.10;58.40;;;;;;5074306;28;20028;-78
2021/03/22 13:23:59;;;;;;;5.20;1.10;;;11.10;59.70;;;;;;5054882;28;20074;-78